Terminal Aerodrome Forecast
Issued by NWS Shreveport, LA

Home | Current Version | Previous Version | Text Only | Print | Product List | Glossary On
Versions: 1 2 3 4 5 6 7 8 9 10 11 12 13
000
FTUS44 KSHV 231100
TAFTXK
TAF
KTXK 231136Z 2312/2412 00000KT P6SM SCT150 BKN250
     FM231900 08004KT P6SM FEW150
     FM240200 11003KT P6SM SKC=

USA.gov is the U.S. government's official web portal to all federal, state and local government web resources and services.